DW7380 Weather Reports


time (UTC)temp
C
wind
direction
speed
KPH
gust
KPH
rain 1hr
cm
rain 24hr
cm
rain mn
cm
humidity
%
barometer
mb
20210723153045 17 100 0.0 0.0 0.00 0.46 0.00 71 1008.7
20210723152545 17 100 0.0 4.8 0.00 0.46 0.00 69 1008.7
20210723152045 17 87 0.0 8.0 0.00 0.46 0.00 68 1008.6
20210723151546 18 49 0.0 8.0 0.00 0.46 0.00 67 1008.7
20210723151045 18 49 8.0 12.9 0.00 0.46 0.00 62 1008.8
20210723150545 18 25 12.9 20.9 0.00 0.46 0.00 58 1008.8
20210723150046 19 39 9.7 24.1 0.00 0.46 0.00 54 1008.7
20210723145545 20 218 0.0 12.9 0.00 0.46 0.00 53 1008.5
20210723145046 20 264 9.7 14.5 0.00 0.46 0.00 52 1008.5
20210723144545 19 267 0.0 19.3 0.00 0.46 0.00 52 1008.5
20210723144046 19 359 16.1 16.1 0.00 0.46 0.00 55 1008.5
20210723143545 19 245 1.6 12.9 0.00 0.46 0.00 56 1008.5
20210723143045 19 4 0.0 11.3 0.00 0.46 0.00 56 1008.5
20210723142545 19 237 0.0 20.9 0.00 0.46 0.00 56 1008.5
20210723142046 18 223 0.0 16.1 0.00 0.46 0.00 57 1008.5
20210723141546 18 235 6.4 16.1 0.00 0.46 0.00 57 1008.5
20210723141045 18 35 14.5 16.1 0.00 0.46 0.00 57 1008.5
20210723140544 18 254 8.0 12.9 0.00 0.46 0.00 57 1008.5
20210723140045 18 359 0.0 9.7 0.00 0.46 0.00 57 1008.5
20210723135545 18 244 6.4 17.7 0.00 0.46 0.00 57 1008.5
20210723135046 18 254 0.0 16.1 0.00 0.46 0.00 57 1008.5
20210723134545 19 39 0.0 11.3 0.00 0.46 0.00 58 1008.5
20210723134044 18 240 0.0 14.5 0.00 0.46 0.00 58 1008.4
20210723133546 18 175 0.0 4.8 0.00 0.46 0.00 59 1008.5
20210723133045 18 215 1.6 11.3 0.00 0.46 0.00 61 1008.6
20210723132546 18 214 0.0 16.1 0.00 0.46 0.00 61 1008.6
20210723132045 18 243 8.0 19.3 0.00 0.46 0.00 62 1008.6
20210723131545 18 228 1.6 17.7 0.00 0.46 0.00 62 1008.5
20210723131045 18 258 12.9 22.5 0.00 0.46 0.00 59 1008.6
20210723130546 18 201 1.6 16.1 0.00 0.46 0.00 60 1008.6
20210723130046 18 266 0.0 20.9 0.00 0.46 0.00 61 1008.7
20210723125545 18 251 8.0 19.3 0.00 0.46 0.00 60 1008.6
20210723125045 18 241 1.6 16.1 0.00 0.46 0.00 60 1008.6
20210723124546 18 250 14.5 19.3 0.00 0.46 0.00 60 1008.6
20210723124045 18 283 6.4 12.9 0.00 0.46 0.00 61 1008.5
20210723123545 18 272 11.3 24.1 0.00 0.46 0.00 59 1008.7
20210723123046 18 359 19.3 25.7 0.00 0.46 0.00 59 1008.7
20210723122546 18 17 1.6 12.9 0.00 0.46 0.00 59 1008.6
20210723122045 18 270 0.0 17.7 0.00 0.46 0.00 62 1008.7
20210723121545 17 220 4.8 17.7 0.00 0.46 0.00 59 1008.8
20210723121045 17 260 0.0 16.1 0.00 0.46 0.00 60 1008.8
20210723120545 17 280 9.7 16.1 0.00 0.46 0.00 59 1008.9
20210723120046 17 13 4.8 12.9 0.00 0.46 0.00 61 1008.9
20210723115545 17 4 1.6 16.1 0.00 0.46 0.00 62 1008.9
20210723115045 17 31 6.4 6.4 0.00 0.46 0.00 64 1008.9
20210723114547 17 274 3.2 16.1 0.00 0.46 0.00 66 1008.9
20210723114045 17 280 0.0 11.3 0.00 0.46 0.00 69 1008.9
20210723113545 16 241 8.0 12.9 0.00 0.48 0.00 71 1008.9
20210723113045 16 8 0.0 16.1 0.00 0.48 0.00 69 1008.8
20210723112546 16 49 6.4 16.1 0.00 0.48 0.00 70 1008.9
20210723112046 16 12 8.0 12.9 0.00 0.48 0.00 72 1009.0
20210723111545 16 22 6.4 14.5 0.00 0.48 0.00 72 1009.0
20210723111045 16 216 3.2 25.7 0.00 0.48 0.00 72 1009.1
20210723110545 16 279 14.5 25.7 0.00 0.48 0.00 72 1009.0
20210723110046 16 12 12.9 24.1 0.00 0.48 0.00 73 1009.2
20210723105545 16 284 6.4 16.1 0.00 0.48 0.00 72 1009.0
20210723105045 16 271 9.7 12.9 0.03 0.48 0.00 72 1009.0
20210723104546 15 284 0.0 8.0 0.05 0.48 0.00 74 1008.9
20210723104045 15 279 4.8 19.3 0.05 0.48 0.00 76 1008.9
20210723103546 15 268 4.8 12.9 0.05 0.48 0.00 81 1008.9
20210723103045 15 270 0.0 1.6 0.10 0.48 0.00 83 1008.8
20210723102546 15 267 0.0 11.3 0.13 0.48 0.00 82 1008.9
20210723102046 15 273 9.7 12.9 0.13 0.48 0.00 82 1008.9
20210723101545 15 15 4.8 12.9 0.13 0.48 0.00 84 1008.9
20210723101046 15 14 8.0 17.7 0.18 0.48 0.00 83 1008.9
20210723100545 14 40 9.7 12.9 0.18 0.48 0.00 82 1008.7
20210723100045 14 37 8.0 14.5 0.18 0.48 0.00 83 1008.7
20210723095545 14 25 0.0 8.0 0.18 0.48 0.00 85 1008.8
20210723095046 14 4 6.4 9.7 0.13 0.46 0.00 85 1008.9
20210723094546 14 8 0.0 14.5 0.10 0.43 0.00 84 1008.6
20210723094045 15 28 8.0 11.3 0.10 0.43 0.00 83 1008.5
20210723093545 15 46 4.8 16.1 0.10 0.43 0.00 81 1008.5
20210723093045 15 4 17.7 22.5 0.05 0.36 0.00 77 1008.6
20210723092546 17 359 16.1 25.7 0.03 0.36 0.00 69 1008.5
20210723092045 17 30 8.0 11.3 0.03 0.36 0.00 62 1007.9
20210723091545 18 10 0.0 16.1 0.03 0.36 0.00 58 1007.9
20210723091044 18 24 12.9 19.3 0.00 0.30 0.00 59 1007.8
20210723090545 18 4 12.9 24.1 0.00 0.30 0.00 59 1007.7
20210723090045 18 16 0.0 14.5 0.00 0.30 0.00 57 1007.5
20210723085545 18 241 0.0 17.7 0.00 0.30 0.00 55 1007.5
20210723085046 18 249 0.0 16.1 0.00 0.30 0.00 56 1007.4
20210723084545 18 279 11.3 14.5 0.00 0.30 0.00 58 1007.5
20210723084045 18 267 11.3 20.9 0.00 0.30 0.00 59 1007.5
20210723083546 18 23 16.1 25.7 0.00 0.30 0.00 59 1007.4
20210723083046 18 239 0.0 19.3 0.00 0.30 0.00 60 1007.3
20210723082545 18 217 12.9 17.7 0.00 0.30 0.00 60 1007.4
20210723082045 18 9 11.3 22.5 0.00 0.30 0.00 59 1007.5
20210723081545 18 274 3.2 20.9 0.00 0.30 0.00 61 1007.5
20210723081046 18 255 6.4 19.3 0.00 0.30 0.00 61 1007.5
20210723080546 18 204 16.1 19.3 0.00 0.30 0.00 61 1007.5
20210723080045 18 11 8.0 22.5 0.00 0.30 0.00 63 1007.5
20210723075545 18 16 3.2 12.9 0.00 0.30 0.00 64 1007.5
20210723075046 18 23 6.4 12.9 0.00 0.30 0.00 64 1007.5
20210723074545 18 253 3.2 19.3 0.00 0.30 0.00 62 1007.6
20210723074045 18 12 6.4 14.5 0.00 0.30 0.00 63 1007.5
20210723073546 17 35 11.3 22.5 0.00 0.30 0.00 63 1007.6
20210723073044 17 271 9.7 19.3 0.00 0.30 0.00 61 1007.6
20210723072545 17 273 6.4 25.7 0.00 0.30 0.00 63 1007.5
20210723072046 17 10 11.3 25.7 0.00 0.30 0.00 63 1007.6
20210723071545 17 270 1.6 17.7 0.00 0.30 0.00 66 1007.5
20210723071045 17 4 8.0 14.5 0.00 0.30 0.00 66 1007.5
20210723070546 17 30 6.4 19.3 0.00 0.30 0.00 66 1007.5
20210723070046 17 359 19.3 19.3 0.00 0.30 0.00 66 1007.5
20210723065544 17 19 11.3 20.9 0.00 0.30 0.00 66 1007.4
20210723065045 17 275 14.5 19.3 0.00 0.30 0.00 66 1007.5
20210723064545 17 279 4.8 20.9 0.00 0.30 0.00 66 1007.5
20210723064045 17 31 4.8 9.7 0.00 0.30 0.00 70 1007.4
20210723063548 17 4 4.8 17.7 0.00 0.30 0.00 68 1007.4
20210723063046 17 268 3.2 19.3 0.00 0.30 0.00 68 1007.4
20210723062544 17 248 11.3 14.5 0.00 0.30 0.00 69 1007.4
20210723062045 17 259 0.0 14.5 0.00 0.30 0.00 69 1007.3
20210723061546 17 14 4.8 16.1 0.00 0.30 0.00 69 1007.3
20210723061045 17 247 8.0 17.7 0.00 0.30 0.00 68 1007.4
20210723060545 17 15 8.0 16.1 0.00 0.30 0.00 68 1007.3
20210723060045 17 12 11.3 16.1 0.00 0.30 0.00 70 1007.3
20210723055546 16 283 4.8 16.1 0.00 0.30 0.00 72 1007.3
20210723055046 16 21 16.1 16.1 0.00 0.30 0.00 73 1007.3
20210723054545 16 36 11.3 16.1 0.00 0.30 0.00 74 1007.3
20210723054045 16 276 6.4 11.3 0.00 0.30 0.00 75 1007.3
20210723053546 16 359 0.0 17.7 0.00 0.30 0.00 75 1007.3
20210723053045 16 284 11.3 17.7 0.00 0.30 0.00 75 1007.3
20210723052545 16 266 4.8 12.9 0.00 0.30 0.00 76 1007.3
20210723052046 16 250 11.3 12.9 0.00 0.30 0.00 77 1007.3
20210723051545 16 11 12.9 14.5 0.00 0.30 0.00 77 1007.3
20210723051045 16 258 0.0 11.3 0.00 0.30 0.00 78 1007.2
20210723050545 15 278 3.2 17.7 0.00 0.30 0.00 77 1007.2
20210723050046 15 256 4.8 14.5 0.00 0.30 0.00 77 1007.3
20210723045546 15 273 12.9 16.1 0.00 0.30 0.00 77 1007.3
20210723045044 15 359 6.4 19.3 0.00 0.30 0.00 77 1007.2
20210723044544 15 280 0.0 16.1 0.00 0.30 0.00 77 1007.2
20210723044045 15 12 1.6 11.3 0.00 0.30 0.00 78 1007.1
20210723043546 15 273 1.6 11.3 0.00 0.30 0.00 78 1007.1
20210723043045 15 253 0.0 11.3 0.00 0.30 0.00 78 1007.1
20210723042546 15 270 1.6 12.9 0.00 0.30 0.00 78 1007.1
20210723042045 15 280 0.0 12.9 0.00 0.30 0.00 79 1007.1
20210723041545 15 10 0.0 14.5 0.00 0.30 0.00 79 1007.1
20210723041044 15 27 6.4 12.9 0.00 0.30 0.00 80 1007.0
20210723040545 15 15 6.4 17.7 0.00 0.30 0.00 79 1007.1
20210723040046 15 24 12.9 14.5 0.00 0.30 0.00 80 1007.1
20210723035546 15 10 8.0 9.7 0.00 0.30 0.00 80 1007.0
20210723035045 15 14 0.0 11.3 0.00 0.30 0.00 80 1007.0
20210723034545 15 276 0.0 9.7 0.00 0.30 0.00 81 1007.0
20210723034045 14 270 3.2 11.3 0.00 0.30 0.00 81 1007.0
20210723033545 14 22 0.0 12.9 0.00 0.30 0.00 81 1007.0
20210723033046 14 285 0.0 6.4 0.00 0.30 0.00 81 1006.9
20210723032545 14 280 3.2 17.7 0.00 0.30 0.00 80 1007.0
20210723032045 14 258 6.4 12.9 0.00 0.30 0.00 80 1006.9
20210723031546 14 281 4.8 14.5 0.00 0.30 0.00 80 1006.9
20210723031046 14 359 0.0 12.9 0.00 0.30 0.00 81 1006.9
20210723030544 14 4 0.0 6.4 0.00 0.30 0.00 81 1007.0
20210723030045 14 4 3.2 17.7 0.00 0.30 0.00 81 1007.0
20210723025545 14 285 9.7 9.7 0.00 0.30 0.00 81 1006.9
20210723025046 14 249 1.6 11.3 0.00 0.30 0.00 80 1006.9
20210723024545 14 4 4.8 17.7 0.00 0.30 0.00 80 1006.9
20210723024045 14 240 12.9 16.1 0.00 0.30 0.00 80 1007.0
20210723023545 14 283 9.7 9.7 0.00 0.30 0.00 80 1007.0
20210723023046 14 276 1.6 16.1 0.00 0.30 0.00 80 1007.0
20210723022545 14 32 6.4 16.1 0.00 0.30 0.00 80 1006.9
20210723022044 14 4 4.8 8.0 0.00 0.30 0.00 79 1006.9
20210723021546 14 283 9.7 14.5 0.00 0.30 0.00 79 1006.9
20210723021047 14 266 9.7 16.1 0.00 0.30 0.00 78 1006.9
20210723020545 14 16 6.4 16.1 0.00 0.30 0.00 77 1006.9
20210723020045 14 15 6.4 12.9 0.00 0.30 0.00 77 1006.9
20210723015545 14 28 8.0 17.7 0.00 0.30 0.00 76 1006.9
20210723015045 14 359 9.7 17.7 0.00 0.30 0.00 76 1006.9
20210723014546 14 4 9.7 16.1 0.00 0.30 0.00 77 1006.8
20210723014044 14 273 1.6 17.7 0.00 0.30 0.00 77 1006.9
20210723013546 14 29 6.4 17.7 0.00 0.30 0.00 76 1007.0
20210723013044 14 285 11.3 17.7 0.00 0.30 0.00 77 1007.0
20210723012547 14 252 0.0 9.7 0.00 0.30 0.00 78 1006.9
20210723012045 14 265 3.2 9.7 0.00 0.30 0.00 78 1006.9
20210723011546 14 24 1.6 4.8 0.00 0.30 0.00 79 1006.9
20210723011045 14 24 0.0 6.4 0.00 0.30 0.00 78 1006.8
20210723010545 14 27 4.8 9.7 0.00 0.30 0.00 78 1006.8
20210723010045 14 285 4.8 11.3 0.00 0.30 0.00 77 1006.7
20210723005545 14 258 3.2 14.5 0.00 0.30 0.00 77 1006.8
20210723005045 14 234 3.2 11.3 0.00 0.30 0.00 76 1006.7
20210723004546 15 4 0.0 6.4 0.00 0.30 0.00 76 1006.7
20210723004045 15 4 6.4 9.7 0.00 0.30 0.00 75 1006.7
20210723003544 15 8 8.0 16.1 0.00 0.30 0.00 74 1006.6
20210723003047 15 24 8.0 17.7 0.00 0.30 0.00 74 1006.6
20210723002546 15 279 0.0 14.5 0.00 0.30 0.00 74 1006.7
20210723002045 15 267 6.4 17.7 0.00 0.30 0.00 73 1006.6
20210723001544 15 270 3.2 20.9 0.00 0.30 0.00 73 1006.7
20210723001046 15 35 8.0 12.9 0.00 0.30 0.00 73 1006.6
20210723000544 15 268 1.6 9.7 0.00 0.30 0.00 73 1006.6
20210723000045 15 79 0.0 11.3 0.00 0.30 0.00 74 1006.5
20210722235546 15 42 0.0 11.3 0.00 0.30 0.00 74 1006.5
20210722235045 15 274 0.0 12.9 0.00 0.30 0.00 74 1006.5
20210722234546 15 244 0.0 12.9 0.00 0.30 0.00 74 1006.5
20210722234046 15 21 4.8 12.9 0.00 0.30 0.00 74 1006.5
20210722233544 15 20 0.0 8.0 0.00 0.30 0.00 74 1006.5
20210722233045 16 263 1.6 16.1 0.00 0.30 0.00 73 1006.5
20210722232546 16 285 4.8 16.1 0.00 0.30 0.00 73 1006.4
20210722232044 16 266 3.2 16.1 0.00 0.30 0.00 74 1006.4
20210722231545 16 280 3.2 14.5 0.00 0.30 0.00 74 1006.5
20210722231046 16 14 8.0 14.5 0.00 0.30 0.00 74 1006.4
20210722230545 16 359 8.0 16.1 0.00 0.30 0.00 75 1006.4
20210722230045 16 8 3.2 14.5 0.00 0.30 0.00 76 1006.4
20210722225544 16 27 4.8 20.9 0.00 0.30 0.00 76 1006.4
20210722225046 16 10 12.9 14.5 0.00 0.30 0.00 76 1006.4
20210722224545 16 4 8.0 14.5 0.00 0.30 0.00 77 1006.3
20210722224045 16 284 4.8 14.5 0.00 0.30 0.00 76 1006.3
20210722223546 16 11 3.2 11.3 0.00 0.30 0.00 76 1006.3
20210722223045 16 25 8.0 12.9 0.00 0.30 0.00 75 1006.3
20210722222545 16 271 11.3 17.7 0.00 0.30 0.00 75 1006.4
20210722222048 16 262 0.0 0.0 0.00 0.30 0.00 76 1006.3
20210722221544 16 8 0.0 0.0 0.00 0.30 0.00 77 1006.3
20210722221045 16 284 0.0 0.0 0.00 0.30 0.00 77 1006.3
20210722220545 16 278 0.0 0.0 0.00 0.30 0.00 77 1006.3
20210722220046 16 15 0.0 0.0 0.00 0.30 0.00 78 1006.2
20210722215546 16 12 0.0 0.0 0.00 0.30 0.00 78 1006.2
20210722215045 16 12 0.0 0.0 0.00 0.30 0.00 79 1006.2
20210722214546 16 11 0.0 0.0 0.00 0.30 0.00 79 1006.2
20210722214045 16 278 0.0 0.0 0.00 0.30 0.00 80 1006.2
20210722213544 16 278 0.0 0.0 0.00 0.30 0.00 81 1006.2
20210722213045 16 278 0.0 0.0 0.00 0.30 0.00 80 1006.2
20210722212546 16 253 0.0 0.0 0.00 0.30 0.00 81 1006.2
20210722212046 16 253 0.0 0.0 0.00 0.30 0.00 81 1006.1
20210722211544 16 253 0.0 0.0 0.00 0.30 0.00 81 1006.2
20210722211045 16 253 0.0 0.0 0.00 0.30 0.00 81 1006.2
20210722210545 16 255 0.0 0.0 0.00 0.30 0.00 82 1006.2
20210722210045 16 255 0.0 0.0 0.00 0.30 0.00 82 1006.1
20210722205545 16 255 0.0 0.0 0.00 0.30 0.00 83 1006.1
20210722205046 16 10 0.0 0.0 0.00 0.30 0.00 83 1006.0
20210722204545 16 10 0.0 0.0 0.00 0.30 0.00 83 1006.1
20210722204045 16 10 0.0 0.0 0.00 0.30 0.00 83 1006.1
20210722203546 16 23 0.0 0.0 0.00 0.30 0.00 83 1006.1
20210722203045 16 16 0.0 0.0 0.00 0.30 0.00 83 1006.0
20210722202544 16 16 0.0 0.0 0.00 0.30 0.00 83 1006.0
20210722202044 16 16 0.0 0.0 0.00 0.30 0.00 83 1006.0
20210722201546 16 16 0.0 0.0 0.00 0.30 0.00 84 1006.1
20210722201045 16 16 0.0 0.0 0.00 0.30 0.00 84 1006.0
20210722200545 16 16 0.0 0.0 0.00 0.30 0.00 83 1006.0
20210722200046 16 16 0.0 0.0 0.00 0.30 0.00 83 1005.9
20210722195546 16 16 0.0 0.0 0.00 0.30 0.00 83 1005.9
20210722195044 16 9 0.0 0.0 0.00 0.30 0.00 84 1005.8
20210722194545 16 35 0.0 0.0 0.00 0.30 0.00 83 1005.7
20210722194045 16 8 0.0 0.0 0.00 0.30 0.00 83 1005.7
20210722193544 17 4 0.0 0.0 0.00 0.30 0.00 83 1005.7
20210722193046 17 279 0.0 12.9 0.00 0.30 0.00 83 1005.7
20210722192546 17 23 0.0 9.7 0.00 0.30 0.00 83 1005.6
20210722192045 17 283 6.4 8.0 0.00 0.30 0.00 84 1005.6
20210722191545 17 284 0.0 0.0 0.00 0.30 0.00 85 1005.4
20210722191046 17 281 0.0 0.0 0.00 0.30 0.00 85 1005.5
20210722190545 17 15 0.0 0.0 0.00 0.30 0.00 85 1005.4
20210722190045 17 26 0.0 0.0 0.00 0.30 0.00 85 1005.4
20210722185545 17 27 0.0 0.0 0.00 0.30 0.00 84 1005.4
20210722185045 17 26 0.0 0.0 0.00 0.30 0.00 84 1005.3
20210722184546 17 26 0.0 0.0 0.00 0.30 0.00 84 1005.4
20210722184046 17 27 0.0 0.0 0.00 0.30 0.00 83 1005.4
20210722183545 17 18 0.0 0.0 0.00 0.30 0.00 83 1005.3
20210722183044 17 254 0.0 0.0 0.03 0.30 0.00 83 1005.4
20210722182546 17 4 0.0 0.0 0.28 0.30 0.00 84 1005.3
20210722182045 17 4 0.0 6.4 0.28 0.30 0.00 84 1005.3
20210722181544 17 4 0.0 8.0 0.28 0.30 0.00 84 1005.2
20210722181045 17 29 0.0 0.0 0.28 0.30 0.00 83 1005.2
20210722180546 17 29 0.0 0.0 0.28 0.30 0.00 82 1005.1
20210722180044 18 278 0.0 9.7 0.28 0.30 0.00 82 1005.1
20210722175545 18 278 0.0 16.1 0.28 0.30 0.00 81 1005.0
20210722175044 18 265 11.3 17.7 0.28 0.30 0.00 82 1004.9
20210722174545 18 274 4.8 14.5 0.28 0.30 0.00 82 1004.9
20210722174046 18 10 6.4 16.1 0.28 0.30 0.00 80 1004.9
20210722173545 18 265 14.5 30.6 0.28 0.30 0.00 78 1005.2
20210722173044 18 264 14.5 22.5 0.23 0.28 0.00 75 1005.5
20210722172544 20 242 8.0 17.7 0.00 0.03 0.00 77 1005.2
20210722172046 20 220 6.4 19.3 0.00 0.03 0.00 76 1005.2
20210722171546 20 94 0.0 9.7 0.00 0.03 0.00 76 1005.3
20210722171045 20 218 1.6 11.3 0.00 0.03 0.00 76 1005.3
20210722170545 20 216 0.0 25.7 0.00 0.03 0.00 76 1005.4
20210722170045 20 190 0.0 9.7 0.00 0.03 0.00 76 1005.4
20210722165545 20 173 9.7 12.9 0.00 0.03 0.00 75 1005.4
20210722165046 20 110 0.0 16.1 0.00 0.03 0.00 75 1005.5
20210722164545 20 197 0.0 19.3 0.00 0.03 0.00 74 1005.4
20210722164046 20 112 6.4 17.7 0.00 0.03 0.00 74 1005.5
20210722163546 20 220 19.3 20.9 0.00 0.03 0.00 74 1005.6
20210722163044 20 172 0.0 25.7 0.00 0.03 0.00 74 1005.5
20210722162546 20 206 0.0 16.1 0.00 0.03 0.00 74 1005.6
20210722162044 20 246 0.0 12.9 0.00 0.03 0.00 74 1005.8
20210722161545 20 199 9.7 14.5 0.00 0.03 0.00 73 1005.7
20210722161046 20 190 8.0 20.9 0.00 0.03 0.00 73 1005.8
20210722160546 20 274 19.3 19.3 0.00 0.03 0.00 73 1005.9
20210722160045 20 260 0.0 11.3 0.00 0.03 0.00 72 1005.9
20210722155545 20 217 6.4 14.5 0.00 0.03 0.00 71 1006.0
20210722155045 20 236 6.4 29.0 0.00 0.03 0.00 71 1006.2
20210722154546 20 175 6.4 19.3 0.00 0.03 0.00 70 1006.1
20210722154045 20 236 8.0 24.1 0.00 0.03 0.00 70 1006.1
20210722153544 20 136 0.0 22.5 0.00 0.03 0.00 70 1006.0